Friday, November 17, 2017, 7:34 PM GMT
Back to Local

CWIG, Ile Aux Grues, Que.

Location: , , Canada Lat: 47.067
Local Time: 7:34 PM GMT (19:34 GMT) Lon: -70.533
Time Zone: GMT Elev: 59 ft

Show me the last for .
Show Coded

Time T Td Feel RH Dir Speed Gust Alt SLP Vis Weather Sky Remarks
2017-11-17 19:00 - - - 0 320° 12 18 - - 0 Peak wind: 21 mph (19 kts) from 320° at 38 min
2017-11-17 18:00 - - - 0 340° 12 18 - - 0 Peak wind: 20 mph (18 kts) from 330° at 05 min
2017-11-17 17:00 - - - 0 320° 12 - - - 0 Peak wind: 19 mph (17 kts) from 310° at 36 min
2017-11-17 16:00 - - - 0 50° 2 - - - 0 None
2017-11-17 15:00 - - - 0 30° 8 - - - 0 None
2017-11-17 14:00 - - - 0 310° 10 - - - 0 None
2017-11-17 13:00 - - - 0 10° 6 - - - 0 None
2017-11-17 12:00 - - - 0 200° 7 - - - 0 None
2017-11-17 11:00 - - - 0 160° 3 - - - 0 None
2017-11-17 10:00 - - - 0 130° 2 - - - 0 None
2017-11-17 09:00 - - - 0 60° 1 - - - 0 None
2017-11-17 08:00 - - - 0 70° 6 - - - 0 None
2017-11-17 07:00 - - - 0 30° 6 - - - 0 None
2017-11-17 06:00 - - - 0 30° 6 - - - 0 None
2017-11-17 05:00 - - - 0 20° 6 - - - 0 None
2017-11-17 04:00 - - - 0 50° 7 - - - 0 None
2017-11-17 03:00 - - - 0 50° 8 - - - 0 None
2017-11-17 02:00 - - - 0 30° 7 - - - 0 None
2017-11-17 01:00 - - - 0 20° 7 - - - 0 None
2017-11-17 00:00 - - - 0 30° 8 - - - 0 None
2017-11-16 23:00 - - - 0 20° 8 - - - 0 None
2017-11-16 22:00 - - - 0 30° 7 - - - 0 None
2017-11-16 21:00 - - - 0 20° 9 - - - 0 None
2017-11-16 20:00 - - - 0 20° 10 - - - 0 None

Support USWX by starting your Amazon purchase here.